• Join FlightAware (Why Join?)
  • Login
  • US Flag 
02:30PM EDT


 

Airport Tracker/Info


-or-


 

Live Flight TrackerFlight Track Log ✈ N51EM ✈ 22-Oct-2013 ✈ KDAB - KABE

Flight Track Log - Related Links

Times and Time Zones

All times are in EDT time to prevent confusion due to time zone crossing. See the N51EM flight status page for this flight to view local times or setup timezone preferences in your user account.

Time Position Orientation Groundspeed Altitude Reporting Facility
EDT Latitude Longitude Course Direction KTS MPH feet Rate Location/Type
06:00PM 29.2147 -80.9772 244° Southwest 161 185 1,500  Level Jacksonville Center
06:01PM 29.1986 -81.0158 244° Southwest 113 130 800 -660 Descending Jacksonville Center
06:03PM 29.3140 -81.1070 336° Northwest  Level FlightAware Approximate
06:10PM 30.1175 -81.4225 344° North  Level FlightAware Approximate
06:11PM 30.2356 -81.4589 348° North  Level FlightAware Approximate
06:12PM 30.3511 -81.5000 North  Level FlightAware Approximate
06:13PM 30.4729 -81.4954 10° North  Level FlightAware Approximate
06:14PM 30.5939 -81.4766 North  Level FlightAware Approximate
06:15PM 30.7157 -81.4667 North  Level FlightAware Approximate
06:16PM 30.8379 -81.4667 North  Level FlightAware Approximate
06:17PM 30.9588 -81.4500 North  Level FlightAware Approximate
06:18PM 31.0809 -81.4472 North  Level FlightAware Approximate
06:19PM 31.2027 -81.4361 North  Level FlightAware Approximate
06:20PM 31.3182 -81.4029 13° North  Level FlightAware Approximate
06:21PM 31.4374 -81.3711 13° North  Level FlightAware Approximate
06:22PM 31.5565 -81.3391 13° North  Level FlightAware Approximate
06:23PM 31.6756 -81.3071 13° North  Level FlightAware Approximate
06:24PM 31.7947 -81.2750 13° North  Level FlightAware Approximate
06:25PM 31.9137 -81.2429 13° North  Level FlightAware Approximate
06:26PM 32.0328 -81.2106 13° North  Level FlightAware Approximate
06:27PM 32.1450 -81.1655 52° Northeast  Level FlightAware Approximate
06:28PM 32.2195 -81.0511 52° Northeast  Level FlightAware Approximate
06:29PM 32.2939 -80.9366 52° Northeast  Level FlightAware Approximate
06:30PM 32.3683 -80.8219 52° Northeast  Level FlightAware Approximate
06:31PM 32.4430 -80.7073 52° Northeast  Level FlightAware Approximate
06:32PM 32.5175 -80.5926 52° Northeast  Level FlightAware Approximate
06:33PM 32.5922 -80.4779 52° Northeast  Level FlightAware Approximate
06:34PM 32.6674 -80.3635 52° Northeast  Level FlightAware Approximate
06:35PM 32.7425 -80.2490 52° Northeast  Level FlightAware Approximate
06:36PM 32.8175 -80.1343 52° Northeast  Level FlightAware Approximate
06:37PM 32.8978 -80.0291 14° North  Level FlightAware Approximate
06:38PM 33.0164 -79.9945 14° North  Level FlightAware Approximate
06:39PM 33.1351 -79.9598 14° North  Level FlightAware Approximate
06:40PM 33.2538 -79.9250 14° North  Level FlightAware Approximate
06:41PM 33.3724 -79.8901 14° North  Level FlightAware Approximate
06:42PM 33.4911 -79.8551 14° North  Level FlightAware Approximate
06:43PM 33.6097 -79.8201 14° North  Level FlightAware Approximate
06:44PM 33.7283 -79.7849 14° North  Level FlightAware Approximate
06:45PM 33.8469 -79.7496 14° North  Level FlightAware Approximate
06:46PM 33.9655 -79.7142 14° North  Level FlightAware Approximate
06:47PM 34.0841 -79.6787 14° North  Level FlightAware Approximate
06:48PM 34.2027 -79.6432 14° North  Level FlightAware Approximate
06:49PM 34.3213 -79.6075 14° North  Level FlightAware Approximate
06:50PM 34.4398 -79.5717 14° North  Level FlightAware Approximate
06:51PM 34.5584 -79.5359 14° North  Level FlightAware Approximate
06:52PM 34.6771 -79.5009 14° North  Level FlightAware Approximate
06:53PM 34.7959 -79.4660 14° North  Level FlightAware Approximate
06:54PM 34.9146 -79.4309 14° North  Level FlightAware Approximate
06:55PM 35.0333 -79.3958 14° North  Level FlightAware Approximate
06:56PM 35.1521 -79.3605 14° North  Level FlightAware Approximate
06:57PM 35.2708 -79.3251 14° North  Level FlightAware Approximate
06:58PM 35.3895 -79.2897 14° North  Level FlightAware Approximate
06:59PM 35.5082 -79.2541 14° North  Level FlightAware Approximate
07:00PM 35.6268 -79.2184 14° North  Level FlightAware Approximate
07:01PM 35.7455 -79.1827 14° North  Level FlightAware Approximate
07:02PM 35.8642 -79.1468 14° North  Level FlightAware Approximate
07:03PM 35.9828 -79.1108 14° North  Level FlightAware Approximate
07:04PM 36.1015 -79.0747 14° North  Level FlightAware Approximate
07:05PM 36.2201 -79.0385 14° North  Level FlightAware Approximate
07:06PM 36.3387 -79.0022 14° North  Level FlightAware Approximate
07:07PM 36.4573 -78.9654 14° North  Level FlightAware Approximate
07:08PM 36.5757 -78.9282 14° North  Level FlightAware Approximate
07:09PM 36.6942 -78.8909 14° North  Level FlightAware Approximate
07:10PM 36.8126 -78.8534 14° North  Level FlightAware Approximate
07:11PM 36.9310 -78.8159 14° North  Level FlightAware Approximate
07:12PM 37.0495 -78.7783 14° North  Level FlightAware Approximate
07:13PM 37.1680 -78.7411 14° North  Level FlightAware Approximate
07:14PM 37.2865 -78.7037 14° North  Level FlightAware Approximate
07:15PM 37.4050 -78.6663 14° North  Level FlightAware Approximate
07:16PM 37.5235 -78.6287 14° North  Level FlightAware Approximate
07:17PM 37.6420 -78.5910 14° North  Level FlightAware Approximate
07:18PM 37.7604 -78.5532 14° North  Level FlightAware Approximate
07:19PM 37.8789 -78.5153 14° North  Level FlightAware Approximate
07:20PM 37.9973 -78.4772 14° North  Level FlightAware Approximate
07:21PM 38.1157 -78.4390 14° North  Level FlightAware Approximate
07:22PM 38.2340 -78.3999 15° North  Level FlightAware Approximate
07:23PM 38.3522 -78.3606 15° North  Level FlightAware Approximate
07:24PM 38.4704 -78.3212 15° North  Level FlightAware Approximate
07:25PM 38.5886 -78.2817 14° North  Level FlightAware Approximate
07:26PM 38.7073 -78.2447 14° North  Level FlightAware Approximate
07:27PM 38.8260 -78.2075 14° North  Level FlightAware Approximate
07:28PM 38.9382 -78.1467 25° Northeast  Level FlightAware Approximate
07:29PM 39.0488 -78.0797 25° Northeast  Level FlightAware Approximate
07:30PM 39.1593 -78.0125 25° Northeast  Level FlightAware Approximate
07:31PM 39.2697 -77.9451 25° Northeast  Level FlightAware Approximate
07:32PM 39.3801 -77.8775 25° Northeast  Level FlightAware Approximate
07:33PM 39.4905 -77.8097 25° Northeast  Level FlightAware Approximate
07:34PM 39.5998 -77.7390 27° Northeast  Level FlightAware Approximate
07:35PM 39.7071 -77.6643 14° North  Level FlightAware Approximate
07:36PM 39.8173 -77.5996 24° Northeast  Level FlightAware Approximate
07:37PM 39.9292 -77.5357 24° Northeast  Level FlightAware Approximate
07:38PM 40.0150 -77.4231 44° Northeast  Level FlightAware Approximate
07:39PM 40.1029 -77.3123 49° Northeast  Level FlightAware Approximate
07:40PM 40.1902 -77.2010 43° Northeast  Level FlightAware Approximate
07:41PM 40.2795 -77.0918 43° Northeast  Level FlightAware Approximate
07:42PM 40.3167 -76.9461 90° East  Level FlightAware Approximate
07:43PM 40.3443 -76.7947 57° Northeast  Level FlightAware Approximate
07:44PM 40.3661 -76.6381 82° East  Level FlightAware Approximate
07:45PM 40.3995 -76.4866 78° East  Level FlightAware Approximate
07:46PM 40.4200 -76.3301 73° East  Level FlightAware Approximate
07:47PM 40.4548 -76.1762 75° East  Level FlightAware Approximate
07:48PM 40.4801 -76.0196 78° East  Level FlightAware Approximate
07:49PM 40.5215 -75.8688 66° East  Level FlightAware Approximate
07:50PM 40.5660 -75.7192 72° East  Level FlightAware Approximate
07:51PM 40.5997 -75.5676 66° East  Level FlightAware Approximate
07:52PM 40.6500 -75.4333 62° Northeast  Level FlightAware Approximate
07:53PM 40.6524 -75.4404 62° Northeast  Level Estimated
07:54PM 40.6500 -75.4333 62° Northeast  Level FlightAware Approximate
07:55PM 40.6524 -75.4404 62° Northeast  Level Estimated
07:56PM 40.6500 -75.4333 62° Northeast  Level FlightAware Approximate
07:57PM 40.6524 -75.4404 62° Northeast  Level Estimated
07:58PM 40.6500 -75.4333 62° Northeast  Level FlightAware Approximate
07:59PM 40.6524 -75.4404 62° Northeast  Level Estimated
08:00PM 40.6500 -75.4333 62° Northeast  Level FlightAware Approximate
08:01PM 40.6524 -75.4404 62° Northeast  Level Estimated
08:02PM 40.6500 -75.4333 62° Northeast  Level FlightAware Approximate
08:03PM 40.6524 -75.4404 62° Northeast  Level Estimated
08:04PM 40.6500 -75.4333 62° Northeast  Level FlightAware Approximate
08:05PM 40.6524 -75.4404 62° Northeast  Level Estimated
08:06PM 40.6500 -75.4333 62° Northeast  Level FlightAware Approximate